sensor_id;sensor_type;location;lat;lon;timestamp;P1;durP1;ratioP1;P2;durP2;ratioP2
72639;SDS011;60683;51.730;8.762;2023-08-24T00:00:25;13.95;;;12.50;;
72639;SDS011;60683;51.730;8.762;2023-08-24T00:03:12;13.63;;;11.70;;
72639;SDS011;60683;51.730;8.762;2023-08-24T00:05:40;15.15;;;12.38;;
72639;SDS011;60683;51.730;8.762;2023-08-24T00:08:08;12.93;;;11.05;;
72639;SDS011;60683;51.730;8.762;2023-08-24T00:10:36;13.10;;;11.35;;
72639;SDS011;60683;51.730;8.762;2023-08-24T00:13:04;16.85;;;12.10;;
72639;SDS011;60683;51.730;8.762;2023-08-24T00:15:31;13.55;;;12.15;;
72639;SDS011;60683;51.730;8.762;2023-08-24T00:17:58;14.77;;;11.30;;
72639;SDS011;60683;51.730;8.762;2023-08-24T00:20:25;14.13;;;12.50;;
72639;SDS011;60683;51.730;8.762;2023-08-24T00:22:52;15.20;;;12.68;;
72639;SDS011;60683;51.730;8.762;2023-08-24T00:25:19;15.32;;;12.23;;
72639;SDS011;60683;51.730;8.762;2023-08-24T00:27:46;15.52;;;12.32;;
72639;SDS011;60683;51.730;8.762;2023-08-24T00:30:15;17.50;;;12.15;;
72639;SDS011;60683;51.730;8.762;2023-08-24T00:32:42;13.32;;;11.00;;
72639;SDS011;60683;51.730;8.762;2023-08-24T00:35:10;13.40;;;11.10;;
72639;SDS011;60683;51.730;8.762;2023-08-24T00:37:36;13.00;;;11.35;;
72639;SDS011;60683;51.730;8.762;2023-08-24T00:40:04;14.80;;;11.73;;
72639;SDS011;60683;51.730;8.762;2023-08-24T00:42:36;15.43;;;11.82;;
72639;SDS011;60683;51.730;8.762;2023-08-24T00:45:05;14.80;;;11.25;;
72639;SDS011;60683;51.730;8.762;2023-08-24T00:47:34;14.02;;;12.43;;
72639;SDS011;60683;51.730;8.762;2023-08-24T00:50:01;13.50;;;11.27;;
72639;SDS011;60683;51.730;8.762;2023-08-24T00:52:30;14.95;;;11.57;;
72639;SDS011;60683;51.730;8.762;2023-08-24T00:54:59;14.43;;;12.07;;
72639;SDS011;60683;51.730;8.762;2023-08-24T00:57:26;16.90;;;12.23;;
72639;SDS011;60683;51.730;8.762;2023-08-24T00:59:54;15.93;;;12.43;;
72639;SDS011;60683;51.730;8.762;2023-08-24T01:02:21;14.77;;;11.52;;
72639;SDS011;60683;51.730;8.762;2023-08-24T01:04:50;15.38;;;12.43;;
72639;SDS011;60683;51.730;8.762;2023-08-24T01:07:16;14.48;;;12.95;;
72639;SDS011;60683;51.730;8.762;2023-08-24T01:09:44;14.30;;;12.80;;
72639;SDS011;60683;51.730;8.762;2023-08-24T01:12:14;13.90;;;10.95;;
72639;SDS011;60683;51.730;8.762;2023-08-24T01:14:49;16.15;;;12.45;;
72639;SDS011;60683;51.730;8.762;2023-08-24T01:17:21;16.33;;;13.07;;
72639;SDS011;60683;51.730;8.762;2023-08-24T01:19:51;19.67;;;12.85;;
72639;SDS011;60683;51.730;8.762;2023-08-24T01:22:20;14.18;;;12.50;;
72639;SDS011;60683;51.730;8.762;2023-08-24T01:25:00;15.75;;;12.77;;
72639;SDS011;60683;51.730;8.762;2023-08-24T01:27:39;14.43;;;11.80;;
72639;SDS011;60683;51.730;8.762;2023-08-24T01:30:09;14.23;;;12.25;;
72639;SDS011;60683;51.730;8.762;2023-08-24T01:32:36;14.85;;;12.35;;
72639;SDS011;60683;51.730;8.762;2023-08-24T01:35:05;14.50;;;12.70;;
72639;SDS011;60683;51.730;8.762;2023-08-24T01:37:34;14.45;;;12.73;;
72639;SDS011;60683;51.730;8.762;2023-08-24T01:40:03;14.63;;;12.43;;
72639;SDS011;60683;51.730;8.762;2023-08-24T01:42:35;15.38;;;12.02;;
72639;SDS011;60683;51.730;8.762;2023-08-24T01:45:07;13.43;;;11.48;;
72639;SDS011;60683;51.730;8.762;2023-08-24T01:47:36;15.45;;;12.80;;
72639;SDS011;60683;51.730;8.762;2023-08-24T01:50:05;15.77;;;14.15;;
72639;SDS011;60683;51.730;8.762;2023-08-24T01:52:32;14.52;;;12.80;;
72639;SDS011;60683;51.730;8.762;2023-08-24T01:55:01;20.52;;;14.50;;
72639;SDS011;60683;51.730;8.762;2023-08-24T01:57:28;19.58;;;14.88;;
72639;SDS011;60683;51.730;8.762;2023-08-24T01:59:55;17.48;;;14.68;;
72639;SDS011;60683;51.730;8.762;2023-08-24T02:02:23;18.42;;;13.65;;
72639;SDS011;60683;51.730;8.762;2023-08-24T02:04:51;19.08;;;13.80;;
72639;SDS011;60683;51.730;8.762;2023-08-24T02:07:18;16.05;;;14.02;;
72639;SDS011;60683;51.730;8.762;2023-08-24T02:09:45;15.43;;;13.80;;
72639;SDS011;60683;51.730;8.762;2023-08-24T02:12:12;17.05;;;14.70;;
72639;SDS011;60683;51.730;8.762;2023-08-24T02:14:39;17.77;;;15.32;;
72639;SDS011;60683;51.730;8.762;2023-08-24T02:17:06;18.20;;;14.52;;
72639;SDS011;60683;51.730;8.762;2023-08-24T02:19:35;18.38;;;14.77;;
72639;SDS011;60683;51.730;8.762;2023-08-24T02:22:01;19.70;;;14.50;;
72639;SDS011;60683;51.730;8.762;2023-08-24T02:24:28;19.95;;;16.25;;
72639;SDS011;60683;51.730;8.762;2023-08-24T02:26:55;18.65;;;13.57;;
72639;SDS011;60683;51.730;8.762;2023-08-24T02:29:22;18.15;;;14.23;;
72639;SDS011;60683;51.730;8.762;2023-08-24T02:31:49;17.25;;;14.90;;
72639;SDS011;60683;51.730;8.762;2023-08-24T02:34:17;18.30;;;15.52;;
72639;SDS011;60683;51.730;8.762;2023-08-24T02:36:45;20.33;;;15.98;;
72639;SDS011;60683;51.730;8.762;2023-08-24T02:39:12;21.15;;;15.00;;
72639;SDS011;60683;51.730;8.762;2023-08-24T02:41:40;17.17;;;14.75;;
72639;SDS011;60683;51.730;8.762;2023-08-24T02:44:07;17.48;;;13.43;;
72639;SDS011;60683;51.730;8.762;2023-08-24T02:46:34;17.95;;;14.93;;
72639;SDS011;60683;51.730;8.762;2023-08-24T02:49:01;19.48;;;14.45;;
72639;SDS011;60683;51.730;8.762;2023-08-24T02:51:28;20.20;;;15.82;;
72639;SDS011;60683;51.730;8.762;2023-08-24T02:53:58;17.52;;;15.10;;
72639;SDS011;60683;51.730;8.762;2023-08-24T02:56:25;16.80;;;12.68;;
72639;SDS011;60683;51.730;8.762;2023-08-24T02:58:52;16.83;;;14.88;;
72639;SDS011;60683;51.730;8.762;2023-08-24T03:01:19;15.88;;;13.65;;
72639;SDS011;60683;51.730;8.762;2023-08-24T03:03:46;16.00;;;13.95;;
72639;SDS011;60683;51.730;8.762;2023-08-24T03:06:13;16.05;;;13.75;;
72639;SDS011;60683;51.730;8.762;2023-08-24T03:08:40;15.65;;;13.23;;
72639;SDS011;60683;51.730;8.762;2023-08-24T03:11:08;15.48;;;13.43;;
72639;SDS011;60683;51.730;8.762;2023-08-24T03:13:36;15.98;;;14.05;;
72639;SDS011;60683;51.730;8.762;2023-08-24T03:16:04;17.50;;;12.20;;
72639;SDS011;60683;51.730;8.762;2023-08-24T03:18:32;16.48;;;13.18;;
72639;SDS011;60683;51.730;8.762;2023-08-24T03:20:59;16.15;;;13.10;;
72639;SDS011;60683;51.730;8.762;2023-08-24T03:23:26;16.15;;;12.95;;
72639;SDS011;60683;51.730;8.762;2023-08-24T03:25:54;17.17;;;13.25;;
72639;SDS011;60683;51.730;8.762;2023-08-24T03:28:23;16.63;;;13.88;;
72639;SDS011;60683;51.730;8.762;2023-08-24T03:30:51;16.27;;;13.45;;
72639;SDS011;60683;51.730;8.762;2023-08-24T03:33:21;18.85;;;13.95;;
72639;SDS011;60683;51.730;8.762;2023-08-24T03:35:48;16.70;;;12.70;;
72639;SDS011;60683;51.730;8.762;2023-08-24T03:38:15;16.70;;;13.23;;
72639;SDS011;60683;51.730;8.762;2023-08-24T03:40:42;16.42;;;13.73;;
72639;SDS011;60683;51.730;8.762;2023-08-24T03:43:10;15.63;;;13.40;;
72639;SDS011;60683;51.730;8.762;2023-08-24T03:45:38;22.20;;;14.07;;
72639;SDS011;60683;51.730;8.762;2023-08-24T03:48:06;17.15;;;12.73;;
72639;SDS011;60683;51.730;8.762;2023-08-24T03:50:32;16.33;;;13.25;;
72639;SDS011;60683;51.730;8.762;2023-08-24T03:52:59;16.92;;;13.13;;
72639;SDS011;60683;51.730;8.762;2023-08-24T03:55:26;16.52;;;12.55;;
72639;SDS011;60683;51.730;8.762;2023-08-24T03:57:53;15.60;;;12.73;;
72639;SDS011;60683;51.730;8.762;2023-08-24T04:00:20;14.20;;;12.07;;
72639;SDS011;60683;51.730;8.762;2023-08-24T04:02:49;14.90;;;13.27;;
72639;SDS011;60683;51.730;8.762;2023-08-24T04:05:16;14.75;;;12.85;;
72639;SDS011;60683;51.730;8.762;2023-08-24T04:07:43;17.80;;;12.52;;
72639;SDS011;60683;51.730;8.762;2023-08-24T04:10:10;17.38;;;14.13;;
72639;SDS011;60683;51.730;8.762;2023-08-24T04:12:38;17.83;;;14.73;;
72639;SDS011;60683;51.730;8.762;2023-08-24T04:15:05;15.55;;;13.93;;
72639;SDS011;60683;51.730;8.762;2023-08-24T04:17:32;14.80;;;13.20;;
72639;SDS011;60683;51.730;8.762;2023-08-24T04:20:00;16.33;;;13.77;;
72639;SDS011;60683;51.730;8.762;2023-08-24T04:22:27;17.42;;;14.20;;
72639;SDS011;60683;51.730;8.762;2023-08-24T04:24:54;15.10;;;13.50;;
72639;SDS011;60683;51.730;8.762;2023-08-24T04:27:21;16.42;;;13.68;;
72639;SDS011;60683;51.730;8.762;2023-08-24T04:29:48;15.15;;;13.45;;
72639;SDS011;60683;51.730;8.762;2023-08-24T04:32:15;14.98;;;12.65;;
72639;SDS011;60683;51.730;8.762;2023-08-24T04:34:42;15.20;;;13.60;;
72639;SDS011;60683;51.730;8.762;2023-08-24T04:37:10;14.52;;;12.55;;
72639;SDS011;60683;51.730;8.762;2023-08-24T04:39:37;14.32;;;12.73;;
72639;SDS011;60683;51.730;8.762;2023-08-24T04:42:05;14.93;;;13.32;;
72639;SDS011;60683;51.730;8.762;2023-08-24T04:44:32;13.77;;;11.95;;
72639;SDS011;60683;51.730;8.762;2023-08-24T04:46:59;15.07;;;13.05;;
72639;SDS011;60683;51.730;8.762;2023-08-24T04:49:26;15.23;;;12.27;;
72639;SDS011;60683;51.730;8.762;2023-08-24T04:51:54;13.20;;;11.63;;
72639;SDS011;60683;51.730;8.762;2023-08-24T04:54:22;15.25;;;11.40;;
72639;SDS011;60683;51.730;8.762;2023-08-24T04:56:49;13.05;;;11.52;;
72639;SDS011;60683;51.730;8.762;2023-08-24T04:59:16;15.35;;;11.23;;
72639;SDS011;60683;51.730;8.762;2023-08-24T05:01:43;16.10;;;11.93;;
72639;SDS011;60683;51.730;8.762;2023-08-24T05:04:10;14.00;;;11.52;;
72639;SDS011;60683;51.730;8.762;2023-08-24T05:06:37;13.25;;;10.77;;
72639;SDS011;60683;51.730;8.762;2023-08-24T05:09:03;13.68;;;10.13;;
72639;SDS011;60683;51.730;8.762;2023-08-24T05:11:32;12.05;;;9.73;;
72639;SDS011;60683;51.730;8.762;2023-08-24T05:13:59;11.75;;;9.82;;
72639;SDS011;60683;51.730;8.762;2023-08-24T05:16:26;12.07;;;9.50;;
72639;SDS011;60683;51.730;8.762;2023-08-24T05:18:53;11.20;;;10.02;;
72639;SDS011;60683;51.730;8.762;2023-08-24T05:21:20;12.10;;;9.50;;
72639;SDS011;60683;51.730;8.762;2023-08-24T05:23:47;11.75;;;10.23;;
72639;SDS011;60683;51.730;8.762;2023-08-24T05:26:14;11.40;;;9.98;;
72639;SDS011;60683;51.730;8.762;2023-08-24T05:28:49;12.43;;;10.32;;
72639;SDS011;60683;51.730;8.762;2023-08-24T05:31:16;11.13;;;9.48;;
72639;SDS011;60683;51.730;8.762;2023-08-24T05:33:43;11.10;;;9.85;;
72639;SDS011;60683;51.730;8.762;2023-08-24T05:36:10;12.23;;;9.98;;
72639;SDS011;60683;51.730;8.762;2023-08-24T05:38:37;11.18;;;10.07;;
72639;SDS011;60683;51.730;8.762;2023-08-24T05:41:10;13.00;;;10.35;;
72639;SDS011;60683;51.730;8.762;2023-08-24T05:43:37;11.15;;;9.95;;
72639;SDS011;60683;51.730;8.762;2023-08-24T05:46:06;13.35;;;10.18;;
72639;SDS011;60683;51.730;8.762;2023-08-24T05:48:32;12.43;;;9.88;;
72639;SDS011;60683;51.730;8.762;2023-08-24T05:50:59;12.02;;;9.38;;
72639;SDS011;60683;51.730;8.762;2023-08-24T05:53:26;11.40;;;9.70;;
72639;SDS011;60683;51.730;8.762;2023-08-24T05:55:57;13.93;;;10.85;;
72639;SDS011;60683;51.730;8.762;2023-08-24T05:58:24;11.10;;;9.85;;
72639;SDS011;60683;51.730;8.762;2023-08-24T06:00:55;13.02;;;10.52;;
72639;SDS011;60683;51.730;8.762;2023-08-24T06:03:25;12.70;;;10.05;;
72639;SDS011;60683;51.730;8.762;2023-08-24T06:05:52;12.70;;;10.88;;
72639;SDS011;60683;51.730;8.762;2023-08-24T06:08:19;11.02;;;9.48;;
72639;SDS011;60683;51.730;8.762;2023-08-24T06:10:46;11.25;;;8.88;;
72639;SDS011;60683;51.730;8.762;2023-08-24T06:13:13;12.20;;;8.63;;
72639;SDS011;60683;51.730;8.762;2023-08-24T06:15:41;13.73;;;9.45;;
72639;SDS011;60683;51.730;8.762;2023-08-24T06:18:08;12.18;;;10.52;;
72639;SDS011;60683;51.730;8.762;2023-08-24T06:20:37;10.65;;;9.55;;
72639;SDS011;60683;51.730;8.762;2023-08-24T06:23:03;15.27;;;10.02;;
72639;SDS011;60683;51.730;8.762;2023-08-24T06:25:31;11.63;;;9.30;;
72639;SDS011;60683;51.730;8.762;2023-08-24T06:27:58;9.88;;;8.80;;
72639;SDS011;60683;51.730;8.762;2023-08-24T06:30:26;12.55;;;9.70;;
72639;SDS011;60683;51.730;8.762;2023-08-24T06:32:53;10.88;;;9.02;;
72639;SDS011;60683;51.730;8.762;2023-08-24T06:35:20;10.13;;;8.73;;
72639;SDS011;60683;51.730;8.762;2023-08-24T06:37:48;13.40;;;9.57;;
72639;SDS011;60683;51.730;8.762;2023-08-24T06:40:15;9.68;;;8.23;;
72639;SDS011;60683;51.730;8.762;2023-08-24T06:42:42;10.73;;;8.38;;
72639;SDS011;60683;51.730;8.762;2023-08-24T06:45:09;11.02;;;7.97;;
72639;SDS011;60683;51.730;8.762;2023-08-24T06:47:35;12.13;;;8.65;;
72639;SDS011;60683;51.730;8.762;2023-08-24T06:50:03;10.18;;;8.80;;
72639;SDS011;60683;51.730;8.762;2023-08-24T06:52:30;9.23;;;8.23;;
72639;SDS011;60683;51.730;8.762;2023-08-24T06:54:58;12.07;;;8.05;;
72639;SDS011;60683;51.730;8.762;2023-08-24T06:57:26;10.52;;;8.68;;
72639;SDS011;60683;51.730;8.762;2023-08-24T06:59:53;11.57;;;8.25;;
72639;SDS011;60683;51.730;8.762;2023-08-24T07:02:20;9.65;;;6.82;;
72639;SDS011;60683;51.730;8.762;2023-08-24T07:04:47;11.15;;;7.82;;
72639;SDS011;60683;51.730;8.762;2023-08-24T07:07:14;11.27;;;7.55;;
72639;SDS011;60683;51.730;8.762;2023-08-24T07:09:41;9.40;;;5.88;;
72639;SDS011;60683;51.730;8.762;2023-08-24T07:12:09;9.40;;;7.43;;
72639;SDS011;60683;51.730;8.762;2023-08-24T07:14:36;9.57;;;6.28;;
72639;SDS011;60683;51.730;8.762;2023-08-24T07:17:03;9.27;;;6.57;;
72639;SDS011;60683;51.730;8.762;2023-08-24T07:19:31;8.48;;;7.57;;
72639;SDS011;60683;51.730;8.762;2023-08-24T07:21:58;10.60;;;8.32;;
72639;SDS011;60683;51.730;8.762;2023-08-24T07:24:25;10.85;;;8.20;;
72639;SDS011;60683;51.730;8.762;2023-08-24T07:26:54;10.18;;;8.15;;
72639;SDS011;60683;51.730;8.762;2023-08-24T07:29:22;10.65;;;7.90;;
72639;SDS011;60683;51.730;8.762;2023-08-24T07:31:49;9.38;;;7.75;;
72639;SDS011;60683;51.730;8.762;2023-08-24T07:34:16;11.73;;;8.25;;
72639;SDS011;60683;51.730;8.762;2023-08-24T07:36:43;10.18;;;8.00;;
72639;SDS011;60683;51.730;8.762;2023-08-24T07:39:12;8.60;;;7.07;;
72639;SDS011;60683;51.730;8.762;2023-08-24T07:41:39;11.13;;;7.97;;
72639;SDS011;60683;51.730;8.762;2023-08-24T07:44:06;10.30;;;7.35;;
72639;SDS011;60683;51.730;8.762;2023-08-24T07:46:35;9.52;;;7.57;;
72639;SDS011;60683;51.730;8.762;2023-08-24T07:49:02;8.30;;;6.75;;
72639;SDS011;60683;51.730;8.762;2023-08-24T07:51:29;8.18;;;6.50;;
72639;SDS011;60683;51.730;8.762;2023-08-24T07:53:56;9.38;;;7.57;;
72639;SDS011;60683;51.730;8.762;2023-08-24T07:56:23;11.10;;;7.60;;
72639;SDS011;60683;51.730;8.762;2023-08-24T07:58:50;9.32;;;7.60;;
72639;SDS011;60683;51.730;8.762;2023-08-24T08:01:17;13.00;;;7.95;;
72639;SDS011;60683;51.730;8.762;2023-08-24T08:03:45;10.43;;;6.85;;
72639;SDS011;60683;51.730;8.762;2023-08-24T08:06:12;7.65;;;6.47;;
72639;SDS011;60683;51.730;8.762;2023-08-24T08:08:39;7.13;;;5.40;;
72639;SDS011;60683;51.730;8.762;2023-08-24T08:11:06;7.43;;;6.13;;
72639;SDS011;60683;51.730;8.762;2023-08-24T08:13:33;7.68;;;5.78;;
72639;SDS011;60683;51.730;8.762;2023-08-24T08:16:00;6.72;;;5.18;;
72639;SDS011;60683;51.730;8.762;2023-08-24T08:18:29;9.43;;;5.13;;
72639;SDS011;60683;51.730;8.762;2023-08-24T08:20:57;9.93;;;5.57;;
72639;SDS011;60683;51.730;8.762;2023-08-24T08:23:24;8.68;;;4.82;;
72639;SDS011;60683;51.730;8.762;2023-08-24T08:25:51;8.00;;;5.40;;
72639;SDS011;60683;51.730;8.762;2023-08-24T08:28:18;6.28;;;4.93;;
72639;SDS011;60683;51.730;8.762;2023-08-24T08:30:47;7.70;;;5.20;;
72639;SDS011;60683;51.730;8.762;2023-08-24T08:33:15;5.78;;;3.47;;
72639;SDS011;60683;51.730;8.762;2023-08-24T08:35:43;7.20;;;3.10;;
72639;SDS011;60683;51.730;8.762;2023-08-24T08:38:11;5.65;;;3.47;;
72639;SDS011;60683;51.730;8.762;2023-08-24T08:40:38;8.23;;;3.50;;
72639;SDS011;60683;51.730;8.762;2023-08-24T08:43:06;5.78;;;2.65;;
72639;SDS011;60683;51.730;8.762;2023-08-24T08:45:33;5.78;;;3.30;;
72639;SDS011;60683;51.730;8.762;2023-08-24T08:48:01;5.88;;;3.00;;
72639;SDS011;60683;51.730;8.762;2023-08-24T08:50:29;5.53;;;3.10;;
72639;SDS011;60683;51.730;8.762;2023-08-24T08:52:58;8.98;;;3.42;;
72639;SDS011;60683;51.730;8.762;2023-08-24T08:55:26;6.57;;;3.47;;
72639;SDS011;60683;51.730;8.762;2023-08-24T08:57:55;5.47;;;3.08;;
72639;SDS011;60683;51.730;8.762;2023-08-24T09:00:24;6.28;;;3.40;;
72639;SDS011;60683;51.730;8.762;2023-08-24T09:02:52;5.22;;;3.22;;
72639;SDS011;60683;51.730;8.762;2023-08-24T09:05:20;6.22;;;3.30;;
72639;SDS011;60683;51.730;8.762;2023-08-24T09:07:48;5.53;;;3.22;;
72639;SDS011;60683;51.730;8.762;2023-08-24T09:10:15;5.28;;;2.85;;
72639;SDS011;60683;51.730;8.762;2023-08-24T09:12:44;5.47;;;3.20;;
72639;SDS011;60683;51.730;8.762;2023-08-24T09:15:10;7.03;;;3.53;;
72639;SDS011;60683;51.730;8.762;2023-08-24T09:17:41;7.60;;;3.55;;
72639;SDS011;60683;51.730;8.762;2023-08-24T09:20:09;7.28;;;2.95;;
72639;SDS011;60683;51.730;8.762;2023-08-24T09:22:37;5.88;;;3.20;;
72639;SDS011;60683;51.730;8.762;2023-08-24T09:25:06;5.75;;;3.08;;
72639;SDS011;60683;51.730;8.762;2023-08-24T09:27:35;7.15;;;3.28;;
72639;SDS011;60683;51.730;8.762;2023-08-24T09:30:04;6.70;;;3.55;;
72639;SDS011;60683;51.730;8.762;2023-08-24T09:32:33;5.78;;;3.20;;
72639;SDS011;60683;51.730;8.762;2023-08-24T09:35:01;5.00;;;3.83;;
72639;SDS011;60683;51.730;8.762;2023-08-24T09:37:31;6.90;;;3.70;;
72639;SDS011;60683;51.730;8.762;2023-08-24T09:40:00;6.50;;;3.17;;
72639;SDS011;60683;51.730;8.762;2023-08-24T09:42:37;7.20;;;3.78;;
72639;SDS011;60683;51.730;8.762;2023-08-24T09:45:05;7.05;;;3.90;;
72639;SDS011;60683;51.730;8.762;2023-08-24T09:47:35;8.15;;;3.30;;
72639;SDS011;60683;51.730;8.762;2023-08-24T09:50:02;7.20;;;3.78;;
72639;SDS011;60683;51.730;8.762;2023-08-24T09:52:31;7.72;;;4.15;;
72639;SDS011;60683;51.730;8.762;2023-08-24T09:54:59;8.02;;;4.03;;
72639;SDS011;60683;51.730;8.762;2023-08-24T09:57:32;6.13;;;3.65;;
72639;SDS011;60683;51.730;8.762;2023-08-24T10:00:05;6.40;;;3.40;;
72639;SDS011;60683;51.730;8.762;2023-08-24T10:02:40;6.80;;;2.70;;
72639;SDS011;60683;51.730;8.762;2023-08-24T10:05:13;4.75;;;2.88;;
72639;SDS011;60683;51.730;8.762;2023-08-24T10:07:46;4.82;;;2.92;;
72639;SDS011;60683;51.730;8.762;2023-08-24T10:10:17;6.22;;;3.50;;
72639;SDS011;60683;51.730;8.762;2023-08-24T10:12:47;5.55;;;2.67;;
72639;SDS011;60683;51.730;8.762;2023-08-24T10:15:24;7.63;;;3.47;;
72639;SDS011;60683;51.730;8.762;2023-08-24T10:17:53;9.40;;;2.92;;
72639;SDS011;60683;51.730;8.762;2023-08-24T10:20:21;5.15;;;3.00;;
72639;SDS011;60683;51.730;8.762;2023-08-24T10:22:49;6.75;;;2.95;;
72639;SDS011;60683;51.730;8.762;2023-08-24T10:25:17;6.82;;;2.38;;
72639;SDS011;60683;51.730;8.762;2023-08-24T10:27:44;5.57;;;2.63;;
72639;SDS011;60683;51.730;8.762;2023-08-24T10:30:13;4.70;;;2.45;;
72639;SDS011;60683;51.730;8.762;2023-08-24T10:32:43;7.60;;;3.42;;
72639;SDS011;60683;51.730;8.762;2023-08-24T10:35:13;6.72;;;3.00;;
72639;SDS011;60683;51.730;8.762;2023-08-24T10:37:41;6.68;;;2.50;;
72639;SDS011;60683;51.730;8.762;2023-08-24T10:40:12;4.68;;;2.72;;
72639;SDS011;60683;51.730;8.762;2023-08-24T10:42:43;5.43;;;2.40;;
72639;SDS011;60683;51.730;8.762;2023-08-24T10:45:12;7.18;;;2.67;;
72639;SDS011;60683;51.730;8.762;2023-08-24T10:47:45;5.45;;;2.38;;
72639;SDS011;60683;51.730;8.762;2023-08-24T10:50:12;6.60;;;2.92;;
72639;SDS011;60683;51.730;8.762;2023-08-24T10:52:42;5.38;;;2.53;;
72639;SDS011;60683;51.730;8.762;2023-08-24T10:55:23;4.60;;;2.40;;
72639;SDS011;60683;51.730;8.762;2023-08-24T10:57:55;6.32;;;2.55;;
72639;SDS011;60683;51.730;8.762;2023-08-24T11:00:25;6.88;;;2.80;;
72639;SDS011;60683;51.730;8.762;2023-08-24T11:02:55;5.75;;;2.80;;
72639;SDS011;60683;51.730;8.762;2023-08-24T11:05:23;4.38;;;2.63;;
72639;SDS011;60683;51.730;8.762;2023-08-24T11:07:54;5.80;;;2.60;;
72639;SDS011;60683;51.730;8.762;2023-08-24T11:10:22;7.70;;;2.35;;
72639;SDS011;60683;51.730;8.762;2023-08-24T11:15:42;4.00;;;2.25;;
72639;SDS011;60683;51.730;8.762;2023-08-24T11:18:12;4.50;;;2.30;;
72639;SDS011;60683;51.730;8.762;2023-08-24T11:20:39;5.38;;;2.60;;
72639;SDS011;60683;51.730;8.762;2023-08-24T11:23:09;5.68;;;2.40;;
72639;SDS011;60683;51.730;8.762;2023-08-24T11:25:36;6.65;;;3.10;;
72639;SDS011;60683;51.730;8.762;2023-08-24T11:28:04;6.90;;;2.53;;
72639;SDS011;60683;51.730;8.762;2023-08-24T11:30:31;5.35;;;2.65;;
72639;SDS011;60683;51.730;8.762;2023-08-24T11:32:59;4.57;;;2.35;;
72639;SDS011;60683;51.730;8.762;2023-08-24T11:35:28;4.30;;;2.30;;
72639;SDS011;60683;51.730;8.762;2023-08-24T11:37:55;6.28;;;2.60;;
72639;SDS011;60683;51.730;8.762;2023-08-24T11:40:23;6.50;;;2.47;;
72639;SDS011;60683;51.730;8.762;2023-08-24T11:42:55;4.65;;;2.60;;
72639;SDS011;60683;51.730;8.762;2023-08-24T11:45:22;5.57;;;2.80;;
72639;SDS011;60683;51.730;8.762;2023-08-24T11:47:50;4.22;;;2.28;;
72639;SDS011;60683;51.730;8.762;2023-08-24T11:50:18;5.45;;;3.15;;
72639;SDS011;60683;51.730;8.762;2023-08-24T11:52:47;6.57;;;2.80;;
72639;SDS011;60683;51.730;8.762;2023-08-24T11:55:14;5.95;;;2.70;;
72639;SDS011;60683;51.730;8.762;2023-08-24T11:57:41;6.72;;;2.55;;
72639;SDS011;60683;51.730;8.762;2023-08-24T12:00:08;4.28;;;3.13;;
72639;SDS011;60683;51.730;8.762;2023-08-24T12:02:40;4.65;;;2.50;;
72639;SDS011;60683;51.730;8.762;2023-08-24T12:05:07;4.50;;;2.40;;
72639;SDS011;60683;51.730;8.762;2023-08-24T12:07:34;3.83;;;2.13;;
72639;SDS011;60683;51.730;8.762;2023-08-24T12:10:03;5.20;;;2.50;;
72639;SDS011;60683;51.730;8.762;2023-08-24T12:12:30;4.93;;;2.80;;
72639;SDS011;60683;51.730;8.762;2023-08-24T12:14:57;5.90;;;2.85;;
72639;SDS011;60683;51.730;8.762;2023-08-24T12:17:24;4.53;;;2.75;;
72639;SDS011;60683;51.730;8.762;2023-08-24T12:19:58;5.32;;;2.65;;
72639;SDS011;60683;51.730;8.762;2023-08-24T12:22:26;7.03;;;2.97;;
72639;SDS011;60683;51.730;8.762;2023-08-24T12:24:53;4.88;;;2.80;;
72639;SDS011;60683;51.730;8.762;2023-08-24T12:27:22;5.38;;;2.90;;
72639;SDS011;60683;51.730;8.762;2023-08-24T12:29:51;4.88;;;3.30;;
72639;SDS011;60683;51.730;8.762;2023-08-24T12:32:20;4.97;;;3.13;;
72639;SDS011;60683;51.730;8.762;2023-08-24T12:34:49;5.63;;;2.88;;
72639;SDS011;60683;51.730;8.762;2023-08-24T12:37:17;6.15;;;3.50;;
72639;SDS011;60683;51.730;8.762;2023-08-24T12:39:44;5.93;;;3.00;;
72639;SDS011;60683;51.730;8.762;2023-08-24T12:42:11;5.30;;;3.42;;
72639;SDS011;60683;51.730;8.762;2023-08-24T12:44:39;5.18;;;3.25;;
72639;SDS011;60683;51.730;8.762;2023-08-24T12:47:06;5.00;;;3.13;;
72639;SDS011;60683;51.730;8.762;2023-08-24T12:49:33;6.40;;;3.50;;
72639;SDS011;60683;51.730;8.762;2023-08-24T12:52:00;7.72;;;3.53;;
72639;SDS011;60683;51.730;8.762;2023-08-24T12:54:27;5.32;;;3.42;;
72639;SDS011;60683;51.730;8.762;2023-08-24T12:56:54;5.13;;;3.47;;
72639;SDS011;60683;51.730;8.762;2023-08-24T12:59:21;6.05;;;3.45;;
72639;SDS011;60683;51.730;8.762;2023-08-24T13:01:49;8.43;;;3.38;;
72639;SDS011;60683;51.730;8.762;2023-08-24T13:04:16;5.00;;;3.00;;
72639;SDS011;60683;51.730;8.762;2023-08-24T13:06:44;7.32;;;3.92;;
72639;SDS011;60683;51.730;8.762;2023-08-24T13:09:10;6.07;;;3.85;;
72639;SDS011;60683;51.730;8.762;2023-08-24T13:11:39;8.63;;;4.05;;
72639;SDS011;60683;51.730;8.762;2023-08-24T13:14:06;8.93;;;3.17;;
72639;SDS011;60683;51.730;8.762;2023-08-24T13:16:33;8.32;;;4.13;;
72639;SDS011;60683;51.730;8.762;2023-08-24T13:19:01;4.22;;;3.38;;
72639;SDS011;60683;51.730;8.762;2023-08-24T13:21:28;6.32;;;3.47;;
72639;SDS011;60683;51.730;8.762;2023-08-24T13:23:55;6.50;;;3.63;;
72639;SDS011;60683;51.730;8.762;2023-08-24T13:26:22;4.60;;;3.25;;
72639;SDS011;60683;51.730;8.762;2023-08-24T13:28:49;5.32;;;3.42;;
72639;SDS011;60683;51.730;8.762;2023-08-24T13:31:17;6.55;;;3.90;;
72639;SDS011;60683;51.730;8.762;2023-08-24T13:33:44;4.63;;;3.63;;
72639;SDS011;60683;51.730;8.762;2023-08-24T13:36:13;5.95;;;3.35;;
72639;SDS011;60683;51.730;8.762;2023-08-24T13:38:40;5.45;;;3.40;;
72639;SDS011;60683;51.730;8.762;2023-08-24T13:41:07;5.28;;;3.53;;
72639;SDS011;60683;51.730;8.762;2023-08-24T13:43:34;7.00;;;3.78;;
72639;SDS011;60683;51.730;8.762;2023-08-24T13:46:01;5.60;;;3.17;;
72639;SDS011;60683;51.730;8.762;2023-08-24T13:48:27;4.80;;;2.75;;
72639;SDS011;60683;51.730;8.762;2023-08-24T13:50:56;5.95;;;2.60;;
72639;SDS011;60683;51.730;8.762;2023-08-24T13:53:25;4.13;;;2.30;;
72639;SDS011;60683;51.730;8.762;2023-08-24T13:55:52;4.45;;;2.30;;
72639;SDS011;60683;51.730;8.762;2023-08-24T13:58:19;3.45;;;2.20;;
72639;SDS011;60683;51.730;8.762;2023-08-24T14:00:46;7.65;;;2.30;;
72639;SDS011;60683;51.730;8.762;2023-08-24T14:03:13;5.32;;;2.45;;
72639;SDS011;60683;51.730;8.762;2023-08-24T14:05:40;3.90;;;2.30;;
72639;SDS011;60683;51.730;8.762;2023-08-24T14:08:07;4.00;;;1.90;;
72639;SDS011;60683;51.730;8.762;2023-08-24T14:10:35;3.90;;;2.15;;
72639;SDS011;60683;51.730;8.762;2023-08-24T14:13:02;6.78;;;2.10;;
72639;SDS011;60683;51.730;8.762;2023-08-24T14:15:30;4.38;;;2.30;;
72639;SDS011;60683;51.730;8.762;2023-08-24T14:17:56;5.30;;;2.70;;
72639;SDS011;60683;51.730;8.762;2023-08-24T14:20:24;4.57;;;2.40;;
72639;SDS011;60683;51.730;8.762;2023-08-24T14:22:50;5.68;;;2.22;;
72639;SDS011;60683;51.730;8.762;2023-08-24T14:25:17;4.75;;;1.83;;
72639;SDS011;60683;51.730;8.762;2023-08-24T14:27:46;5.65;;;3.13;;
72639;SDS011;60683;51.730;8.762;2023-08-24T14:30:13;4.38;;;2.53;;
72639;SDS011;60683;51.730;8.762;2023-08-24T14:32:40;4.65;;;2.67;;
72639;SDS011;60683;51.730;8.762;2023-08-24T14:35:07;4.88;;;2.55;;
72639;SDS011;60683;51.730;8.762;2023-08-24T14:37:34;4.97;;;2.83;;
72639;SDS011;60683;51.730;8.762;2023-08-24T14:40:04;5.82;;;2.78;;
72639;SDS011;60683;51.730;8.762;2023-08-24T14:42:31;5.20;;;2.55;;